sensor_id;sensor_type;location;lat;lon;timestamp;temperature;humidity
4727;DHT22;2377;51.734;8.950;2024-03-08T00:00:19;2.10;99.90
4727;DHT22;2377;51.734;8.950;2024-03-08T00:02:53;2.10;99.90
4727;DHT22;2377;51.734;8.950;2024-03-08T00:05:21;2.10;99.90
4727;DHT22;2377;51.734;8.950;2024-03-08T00:07:50;2.10;99.90
4727;DHT22;2377;51.734;8.950;2024-03-08T00:10:21;2.10;99.90
4727;DHT22;2377;51.734;8.950;2024-03-08T00:12:57;2.00;99.90
4727;DHT22;2377;51.734;8.950;2024-03-08T00:15:24;2.00;99.90
4727;DHT22;2377;51.734;8.950;2024-03-08T00:17:55;2.00;99.90
4727;DHT22;2377;51.734;8.950;2024-03-08T00:20:22;2.00;99.90
4727;DHT22;2377;51.734;8.950;2024-03-08T00:22:54;1.90;99.90
4727;DHT22;2377;51.734;8.950;2024-03-08T00:25:23;1.90;99.90
4727;DHT22;2377;51.734;8.950;2024-03-08T00:27:52;1.90;99.90
4727;DHT22;2377;51.734;8.950;2024-03-08T00:30:25;1.90;99.90
4727;DHT22;2377;51.734;8.950;2024-03-08T00:32:54;1.80;99.90
4727;DHT22;2377;51.734;8.950;2024-03-08T00:35:21;1.90;99.90
4727;DHT22;2377;51.734;8.950;2024-03-08T00:37:52;1.90;99.90
4727;DHT22;2377;51.734;8.950;2024-03-08T00:40:22;1.80;99.90
4727;DHT22;2377;51.734;8.950;2024-03-08T00:42:49;1.80;99.90
4727;DHT22;2377;51.734;8.950;2024-03-08T00:45:17;1.80;99.90
4727;DHT22;2377;51.734;8.950;2024-03-08T00:47:46;1.80;99.90
4727;DHT22;2377;51.734;8.950;2024-03-08T00:50:13;1.80;99.90
4727;DHT22;2377;51.734;8.950;2024-03-08T00:52:40;1.80;99.90
4727;DHT22;2377;51.734;8.950;2024-03-08T00:55:11;1.80;99.90
4727;DHT22;2377;51.734;8.950;2024-03-08T00:57:45;1.80;99.90
4727;DHT22;2377;51.734;8.950;2024-03-08T01:00:13;1.80;99.90
4727;DHT22;2377;51.734;8.950;2024-03-08T01:02:44;1.70;99.90
4727;DHT22;2377;51.734;8.950;2024-03-08T01:05:11;1.70;99.90
4727;DHT22;2377;51.734;8.950;2024-03-08T01:07:39;1.70;99.90
4727;DHT22;2377;51.734;8.950;2024-03-08T01:10:19;1.60;99.90
4727;DHT22;2377;51.734;8.950;2024-03-08T01:12:46;1.60;99.90
4727;DHT22;2377;51.734;8.950;2024-03-08T01:15:16;1.60;99.90
4727;DHT22;2377;51.734;8.950;2024-03-08T01:17:45;1.60;99.90
4727;DHT22;2377;51.734;8.950;2024-03-08T01:20:13;1.60;99.90
4727;DHT22;2377;51.734;8.950;2024-03-08T01:22:42;1.60;99.90
4727;DHT22;2377;51.734;8.950;2024-03-08T01:25:11;1.60;99.90
4727;DHT22;2377;51.734;8.950;2024-03-08T01:27:42;1.60;99.90
4727;DHT22;2377;51.734;8.950;2024-03-08T01:30:10;1.60;99.90
4727;DHT22;2377;51.734;8.950;2024-03-08T01:32:43;1.60;99.90
4727;DHT22;2377;51.734;8.950;2024-03-08T01:35:13;1.60;99.90
4727;DHT22;2377;51.734;8.950;2024-03-08T01:37:41;1.60;99.90
4727;DHT22;2377;51.734;8.950;2024-03-08T01:40:09;1.60;99.90
4727;DHT22;2377;51.734;8.950;2024-03-08T01:42:37;1.60;99.90
4727;DHT22;2377;51.734;8.950;2024-03-08T01:45:17;1.60;99.90
4727;DHT22;2377;51.734;8.950;2024-03-08T01:47:45;1.50;99.90
4727;DHT22;2377;51.734;8.950;2024-03-08T01:50:13;1.50;99.90
4727;DHT22;2377;51.734;8.950;2024-03-08T01:52:42;1.50;99.90
4727;DHT22;2377;51.734;8.950;2024-03-08T01:55:13;1.50;99.90
4727;DHT22;2377;51.734;8.950;2024-03-08T01:57:41;1.50;99.90
4727;DHT22;2377;51.734;8.950;2024-03-08T02:00:11;1.50;1.00
4727;DHT22;2377;51.734;8.950;2024-03-08T02:02:47;1.40;1.00
4727;DHT22;2377;51.734;8.950;2024-03-08T02:05:18;1.40;1.00
4727;DHT22;2377;51.734;8.950;2024-03-08T02:07:45;1.40;1.00
4727;DHT22;2377;51.734;8.950;2024-03-08T02:10:13;1.30;1.00
4727;DHT22;2377;51.734;8.950;2024-03-08T02:12:42;1.40;1.00
4727;DHT22;2377;51.734;8.950;2024-03-08T02:15:10;1.40;1.00
4727;DHT22;2377;51.734;8.950;2024-03-08T02:17:37;1.40;1.00
4727;DHT22;2377;51.734;8.950;2024-03-08T02:20:08;1.30;1.00
4727;DHT22;2377;51.734;8.950;2024-03-08T02:22:40;1.30;1.00
4727;DHT22;2377;51.734;8.950;2024-03-08T02:25:09;1.30;1.00
4727;DHT22;2377;51.734;8.950;2024-03-08T02:27:36;1.30;1.00
4727;DHT22;2377;51.734;8.950;2024-03-08T02:30:08;1.30;1.00
4727;DHT22;2377;51.734;8.950;2024-03-08T02:32:38;1.30;1.00
4727;DHT22;2377;51.734;8.950;2024-03-08T02:35:06;1.30;99.90
4727;DHT22;2377;51.734;8.950;2024-03-08T02:37:33;1.30;1.00
4727;DHT22;2377;51.734;8.950;2024-03-08T02:40:03;1.30;1.00
4727;DHT22;2377;51.734;8.950;2024-03-08T02:42:34;1.30;1.00
4727;DHT22;2377;51.734;8.950;2024-03-08T02:45:01;1.20;1.00
4727;DHT22;2377;51.734;8.950;2024-03-08T02:47:31;1.20;1.00
4727;DHT22;2377;51.734;8.950;2024-03-08T02:49:59;1.10;1.00
4727;DHT22;2377;51.734;8.950;2024-03-08T02:52:27;1.10;1.00
4727;DHT22;2377;51.734;8.950;2024-03-08T02:54:54;1.10;1.00
4727;DHT22;2377;51.734;8.950;2024-03-08T02:57:23;1.10;1.00
4727;DHT22;2377;51.734;8.950;2024-03-08T02:59:53;1.10;1.00
4727;DHT22;2377;51.734;8.950;2024-03-08T03:02:21;1.10;1.00
4727;DHT22;2377;51.734;8.950;2024-03-08T03:04:52;1.10;1.00
4727;DHT22;2377;51.734;8.950;2024-03-08T03:07:22;1.10;1.00
4727;DHT22;2377;51.734;8.950;2024-03-08T03:09:49;1.00;1.00
4727;DHT22;2377;51.734;8.950;2024-03-08T03:12:18;1.00;1.00
4727;DHT22;2377;51.734;8.950;2024-03-08T03:14:47;1.00;1.00
4727;DHT22;2377;51.734;8.950;2024-03-08T03:17:15;1.00;1.00
4727;DHT22;2377;51.734;8.950;2024-03-08T03:19:44;0.90;1.00
4727;DHT22;2377;51.734;8.950;2024-03-08T03:22:14;1.00;1.00
4727;DHT22;2377;51.734;8.950;2024-03-08T03:24:42;0.90;1.00
4727;DHT22;2377;51.734;8.950;2024-03-08T03:27:10;0.90;1.00
4727;DHT22;2377;51.734;8.950;2024-03-08T03:29:43;0.90;1.00
4727;DHT22;2377;51.734;8.950;2024-03-08T03:32:17;0.90;1.00
4727;DHT22;2377;51.734;8.950;2024-03-08T03:34:45;0.90;1.00
4727;DHT22;2377;51.734;8.950;2024-03-08T03:37:12;0.80;1.00
4727;DHT22;2377;51.734;8.950;2024-03-08T03:39:39;0.80;1.00
4727;DHT22;2377;51.734;8.950;2024-03-08T03:42:16;0.80;1.00
4727;DHT22;2377;51.734;8.950;2024-03-08T03:44:44;0.80;1.00
4727;DHT22;2377;51.734;8.950;2024-03-08T03:47:14;0.80;1.00
4727;DHT22;2377;51.734;8.950;2024-03-08T03:49:46;0.80;1.00
4727;DHT22;2377;51.734;8.950;2024-03-08T03:52:14;0.80;1.00
4727;DHT22;2377;51.734;8.950;2024-03-08T03:54:44;0.80;1.00
4727;DHT22;2377;51.734;8.950;2024-03-08T03:57:11;0.80;1.00
4727;DHT22;2377;51.734;8.950;2024-03-08T03:59:40;0.80;1.00
4727;DHT22;2377;51.734;8.950;2024-03-08T04:02:09;0.80;1.00
4727;DHT22;2377;51.734;8.950;2024-03-08T04:04:40;0.80;1.00
4727;DHT22;2377;51.734;8.950;2024-03-08T04:07:07;0.80;1.00
4727;DHT22;2377;51.734;8.950;2024-03-08T04:09:35;0.80;1.00
4727;DHT22;2377;51.734;8.950;2024-03-08T04:12:03;0.80;1.00
4727;DHT22;2377;51.734;8.950;2024-03-08T04:14:31;0.80;1.00
4727;DHT22;2377;51.734;8.950;2024-03-08T04:17:04;0.80;1.00
4727;DHT22;2377;51.734;8.950;2024-03-08T04:19:33;0.80;1.00
4727;DHT22;2377;51.734;8.950;2024-03-08T04:22:05;0.80;1.00
4727;DHT22;2377;51.734;8.950;2024-03-08T04:24:34;0.70;1.00
4727;DHT22;2377;51.734;8.950;2024-03-08T04:27:03;0.70;1.00
4727;DHT22;2377;51.734;8.950;2024-03-08T04:29:31;0.70;1.00
4727;DHT22;2377;51.734;8.950;2024-03-08T04:32:02;0.70;1.00
4727;DHT22;2377;51.734;8.950;2024-03-08T04:34:30;0.70;1.00
4727;DHT22;2377;51.734;8.950;2024-03-08T04:37:02;0.70;1.00
4727;DHT22;2377;51.734;8.950;2024-03-08T04:39:31;0.70;1.00
4727;DHT22;2377;51.734;8.950;2024-03-08T04:42:09;0.70;1.00
4727;DHT22;2377;51.734;8.950;2024-03-08T04:44:38;0.70;1.00
4727;DHT22;2377;51.734;8.950;2024-03-08T04:47:07;0.70;1.00
4727;DHT22;2377;51.734;8.950;2024-03-08T04:49:37;0.70;1.00
4727;DHT22;2377;51.734;8.950;2024-03-08T04:52:16;0.60;1.00
4727;DHT22;2377;51.734;8.950;2024-03-08T04:54:44;0.70;1.00
4727;DHT22;2377;51.734;8.950;2024-03-08T04:57:12;0.60;1.00
4727;DHT22;2377;51.734;8.950;2024-03-08T04:59:39;0.60;1.00
4727;DHT22;2377;51.734;8.950;2024-03-08T05:02:08;0.60;1.00
4727;DHT22;2377;51.734;8.950;2024-03-08T05:04:38;0.60;1.00
4727;DHT22;2377;51.734;8.950;2024-03-08T05:07:07;0.60;1.00
4727;DHT22;2377;51.734;8.950;2024-03-08T05:09:34;0.60;1.00
4727;DHT22;2377;51.734;8.950;2024-03-08T05:12:02;0.60;1.00
4727;DHT22;2377;51.734;8.950;2024-03-08T05:14:30;0.60;1.00
4727;DHT22;2377;51.734;8.950;2024-03-08T05:16:57;0.60;1.00
4727;DHT22;2377;51.734;8.950;2024-03-08T05:19:24;0.60;1.00
4727;DHT22;2377;51.734;8.950;2024-03-08T05:21:51;0.60;1.00
4727;DHT22;2377;51.734;8.950;2024-03-08T05:24:21;0.60;1.00
4727;DHT22;2377;51.734;8.950;2024-03-08T05:26:48;0.60;1.00
4727;DHT22;2377;51.734;8.950;2024-03-08T05:29:18;0.60;1.00
4727;DHT22;2377;51.734;8.950;2024-03-08T05:31:49;0.60;1.00
4727;DHT22;2377;51.734;8.950;2024-03-08T05:34:19;0.60;1.00
4727;DHT22;2377;51.734;8.950;2024-03-08T05:36:47;0.60;1.00
4727;DHT22;2377;51.734;8.950;2024-03-08T05:39:16;0.60;1.00
4727;DHT22;2377;51.734;8.950;2024-03-08T05:41:46;0.60;1.00
4727;DHT22;2377;51.734;8.950;2024-03-08T05:44:14;0.50;1.00
4727;DHT22;2377;51.734;8.950;2024-03-08T05:46:42;0.50;1.00
4727;DHT22;2377;51.734;8.950;2024-03-08T05:49:09;0.50;1.00
4727;DHT22;2377;51.734;8.950;2024-03-08T05:51:38;0.50;1.00
4727;DHT22;2377;51.734;8.950;2024-03-08T05:54:07;0.50;1.00
4727;DHT22;2377;51.734;8.950;2024-03-08T05:56:37;0.50;1.00
4727;DHT22;2377;51.734;8.950;2024-03-08T05:59:07;0.50;1.00
4727;DHT22;2377;51.734;8.950;2024-03-08T06:01:35;0.40;1.00
4727;DHT22;2377;51.734;8.950;2024-03-08T06:04:03;0.50;1.00
4727;DHT22;2377;51.734;8.950;2024-03-08T06:06:30;0.50;1.00
4727;DHT22;2377;51.734;8.950;2024-03-08T06:08:57;0.50;1.00
4727;DHT22;2377;51.734;8.950;2024-03-08T06:11:25;0.50;1.00
4727;DHT22;2377;51.734;8.950;2024-03-08T06:13:54;0.50;1.00
4727;DHT22;2377;51.734;8.950;2024-03-08T06:16:26;0.50;1.00
4727;DHT22;2377;51.734;8.950;2024-03-08T06:18:55;0.50;1.00
4727;DHT22;2377;51.734;8.950;2024-03-08T06:21:23;0.50;1.00
4727;DHT22;2377;51.734;8.950;2024-03-08T06:23:52;0.50;1.00
4727;DHT22;2377;51.734;8.950;2024-03-08T06:26:20;0.50;1.00
4727;DHT22;2377;51.734;8.950;2024-03-08T06:28:47;0.50;1.00
4727;DHT22;2377;51.734;8.950;2024-03-08T06:31:14;0.50;1.00
4727;DHT22;2377;51.734;8.950;2024-03-08T06:33:43;0.50;1.00
4727;DHT22;2377;51.734;8.950;2024-03-08T06:36:10;0.50;1.00
4727;DHT22;2377;51.734;8.950;2024-03-08T06:38:38;0.50;1.00
4727;DHT22;2377;51.734;8.950;2024-03-08T06:41:08;0.50;1.00
4727;DHT22;2377;51.734;8.950;2024-03-08T06:43:40;0.60;1.00
4727;DHT22;2377;51.734;8.950;2024-03-08T06:46:08;0.60;1.00
4727;DHT22;2377;51.734;8.950;2024-03-08T06:48:35;0.70;1.00
4727;DHT22;2377;51.734;8.950;2024-03-08T06:51:05;0.70;1.00
4727;DHT22;2377;51.734;8.950;2024-03-08T06:53:33;0.80;1.00
4727;DHT22;2377;51.734;8.950;2024-03-08T06:56:01;0.80;1.00
4727;DHT22;2377;51.734;8.950;2024-03-08T06:58:28;0.80;1.00
4727;DHT22;2377;51.734;8.950;2024-03-08T07:00:55;0.90;1.00
4727;DHT22;2377;51.734;8.950;2024-03-08T07:03:26;1.00;1.00
4727;DHT22;2377;51.734;8.950;2024-03-08T07:05:55;1.00;1.00
4727;DHT22;2377;51.734;8.950;2024-03-08T07:08:25;1.00;1.00
4727;DHT22;2377;51.734;8.950;2024-03-08T07:10:52;1.10;1.00
4727;DHT22;2377;51.734;8.950;2024-03-08T07:13:19;1.20;99.90
4727;DHT22;2377;51.734;8.950;2024-03-08T07:15:46;1.30;1.00
4727;DHT22;2377;51.734;8.950;2024-03-08T07:18:13;1.30;99.90
4727;DHT22;2377;51.734;8.950;2024-03-08T07:20:41;1.40;99.90
4727;DHT22;2377;51.734;8.950;2024-03-08T07:23:09;1.40;99.90
4727;DHT22;2377;51.734;8.950;2024-03-08T07:25:37;1.50;99.90
4727;DHT22;2377;51.734;8.950;2024-03-08T07:28:05;1.60;99.90
4727;DHT22;2377;51.734;8.950;2024-03-08T07:30:33;1.60;99.90
4727;DHT22;2377;51.734;8.950;2024-03-08T07:33:27;1.70;99.90
4727;DHT22;2377;51.734;8.950;2024-03-08T07:35:54;1.80;99.90
4727;DHT22;2377;51.734;8.950;2024-03-08T07:38:22;1.80;99.90
4727;DHT22;2377;51.734;8.950;2024-03-08T07:40:50;1.90;99.90
4727;DHT22;2377;51.734;8.950;2024-03-08T07:43:17;2.00;99.90
4727;DHT22;2377;51.734;8.950;2024-03-08T07:45:44;2.00;99.90
4727;DHT22;2377;51.734;8.950;2024-03-08T07:48:12;2.00;99.90
4727;DHT22;2377;51.734;8.950;2024-03-08T07:50:40;2.10;99.90
4727;DHT22;2377;51.734;8.950;2024-03-08T07:53:07;2.20;99.90
4727;DHT22;2377;51.734;8.950;2024-03-08T07:55:35;2.20;99.90
4727;DHT22;2377;51.734;8.950;2024-03-08T07:58:04;2.30;99.90
4727;DHT22;2377;51.734;8.950;2024-03-08T08:00:31;2.30;99.90
4727;DHT22;2377;51.734;8.950;2024-03-08T08:02:58;2.40;99.90
4727;DHT22;2377;51.734;8.950;2024-03-08T08:05:26;2.50;99.90
4727;DHT22;2377;51.734;8.950;2024-03-08T08:07:53;2.50;99.90
4727;DHT22;2377;51.734;8.950;2024-03-08T08:10:21;2.50;99.90
4727;DHT22;2377;51.734;8.950;2024-03-08T08:12:50;2.60;99.90
4727;DHT22;2377;51.734;8.950;2024-03-08T08:15:19;2.70;99.90
4727;DHT22;2377;51.734;8.950;2024-03-08T08:17:47;2.80;99.90
4727;DHT22;2377;51.734;8.950;2024-03-08T08:20:14;2.90;99.90
4727;DHT22;2377;51.734;8.950;2024-03-08T08:22:41;3.00;99.90
4727;DHT22;2377;51.734;8.950;2024-03-08T08:25:12;3.00;99.90
4727;DHT22;2377;51.734;8.950;2024-03-08T08:27:41;3.10;99.90
4727;DHT22;2377;51.734;8.950;2024-03-08T08:30:09;3.20;99.90
4727;DHT22;2377;51.734;8.950;2024-03-08T08:32:39;3.30;99.90
4727;DHT22;2377;51.734;8.950;2024-03-08T08:35:08;3.30;99.90
4727;DHT22;2377;51.734;8.950;2024-03-08T08:37:38;3.50;99.90
4727;DHT22;2377;51.734;8.950;2024-03-08T08:40:06;3.70;99.90
4727;DHT22;2377;51.734;8.950;2024-03-08T08:42:36;3.80;99.90
4727;DHT22;2377;51.734;8.950;2024-03-08T08:45:07;3.90;99.90
4727;DHT22;2377;51.734;8.950;2024-03-08T08:47:35;4.00;99.90
4727;DHT22;2377;51.734;8.950;2024-03-08T08:50:04;4.20;99.90
4727;DHT22;2377;51.734;8.950;2024-03-08T08:52:32;4.30;99.90
4727;DHT22;2377;51.734;8.950;2024-03-08T08:55:00;4.30;99.90
4727;DHT22;2377;51.734;8.950;2024-03-08T08:57:29;4.40;99.90
4727;DHT22;2377;51.734;8.950;2024-03-08T08:59:58;4.50;99.90
4727;DHT22;2377;51.734;8.950;2024-03-08T09:02:26;4.70;99.90
4727;DHT22;2377;51.734;8.950;2024-03-08T09:04:53;4.90;99.90
4727;DHT22;2377;51.734;8.950;2024-03-08T09:07:21;5.10;99.90
4727;DHT22;2377;51.734;8.950;2024-03-08T09:09:48;5.30;99.90
4727;DHT22;2377;51.734;8.950;2024-03-08T09:12:15;5.60;99.90
4727;DHT22;2377;51.734;8.950;2024-03-08T09:14:43;5.70;99.90
4727;DHT22;2377;51.734;8.950;2024-03-08T09:17:10;5.80;99.90
4727;DHT22;2377;51.734;8.950;2024-03-08T09:19:37;5.90;99.90
4727;DHT22;2377;51.734;8.950;2024-03-08T09:22:05;5.80;99.90
4727;DHT22;2377;51.734;8.950;2024-03-08T09:24:33;5.80;99.90
4727;DHT22;2377;51.734;8.950;2024-03-08T09:27:00;5.80;99.90
4727;DHT22;2377;51.734;8.950;2024-03-08T09:29:28;5.80;99.90
4727;DHT22;2377;51.734;8.950;2024-03-08T09:31:55;5.90;99.90
4727;DHT22;2377;51.734;8.950;2024-03-08T09:34:22;6.00;99.90
4727;DHT22;2377;51.734;8.950;2024-03-08T09:36:49;6.10;99.90
4727;DHT22;2377;51.734;8.950;2024-03-08T09:39:17;6.10;99.90
4727;DHT22;2377;51.734;8.950;2024-03-08T09:41:47;6.30;99.90
4727;DHT22;2377;51.734;8.950;2024-03-08T09:44:15;6.50;99.90
4727;DHT22;2377;51.734;8.950;2024-03-08T09:46:42;6.70;99.90
4727;DHT22;2377;51.734;8.950;2024-03-08T09:49:09;6.80;99.90
4727;DHT22;2377;51.734;8.950;2024-03-08T09:51:38;7.00;99.90
4727;DHT22;2377;51.734;8.950;2024-03-08T09:54:07;7.10;99.90
4727;DHT22;2377;51.734;8.950;2024-03-08T09:56:35;7.20;99.90
4727;DHT22;2377;51.734;8.950;2024-03-08T09:59:04;7.50;99.90
4727;DHT22;2377;51.734;8.950;2024-03-08T10:01:58;7.70;99.90
4727;DHT22;2377;51.734;8.950;2024-03-08T10:04:25;7.70;99.90
4727;DHT22;2377;51.734;8.950;2024-03-08T10:06:54;7.80;99.90
4727;DHT22;2377;51.734;8.950;2024-03-08T10:09:22;8.00;99.90
4727;DHT22;2377;51.734;8.950;2024-03-08T10:11:50;8.10;99.90
4727;DHT22;2377;51.734;8.950;2024-03-08T10:14:22;8.10;99.90
4727;DHT22;2377;51.734;8.950;2024-03-08T10:16:50;8.10;99.90
4727;DHT22;2377;51.734;8.950;2024-03-08T10:19:25;8.00;99.90
4727;DHT22;2377;51.734;8.950;2024-03-08T10:21:53;8.00;99.90
4727;DHT22;2377;51.734;8.950;2024-03-08T10:24:22;8.00;99.90
4727;DHT22;2377;51.734;8.950;2024-03-08T10:26:52;7.90;99.90
4727;DHT22;2377;51.734;8.950;2024-03-08T10:29:21;7.60;99.90
4727;DHT22;2377;51.734;8.950;2024-03-08T10:31:48;7.60;99.90
4727;DHT22;2377;51.734;8.950;2024-03-08T10:34:17;7.60;99.90
4727;DHT22;2377;51.734;8.950;2024-03-08T10:36:45;7.60;99.90
4727;DHT22;2377;51.734;8.950;2024-03-08T10:39:22;7.40;99.90
4727;DHT22;2377;51.734;8.950;2024-03-08T10:41:53;7.50;99.90
4727;DHT22;2377;51.734;8.950;2024-03-08T10:44:51;7.50;99.90
4727;DHT22;2377;51.734;8.950;2024-03-08T10:47:26;7.50;99.90
4727;DHT22;2377;51.734;8.950;2024-03-08T10:50:04;7.50;99.90
4727;DHT22;2377;51.734;8.950;2024-03-08T10:52:38;7.30;99.90
4727;DHT22;2377;51.734;8.950;2024-03-08T10:55:07;7.30;99.90
4727;DHT22;2377;51.734;8.950;2024-03-08T10:57:38;7.50;99.90
4727;DHT22;2377;51.734;8.950;2024-03-08T11:00:09;7.50;99.90
4727;DHT22;2377;51.734;8.950;2024-03-08T11:02:38;7.50;99.90
4727;DHT22;2377;51.734;8.950;2024-03-08T11:05:10;7.50;99.90
4727;DHT22;2377;51.734;8.950;2024-03-08T11:07:42;7.60;99.90
4727;DHT22;2377;51.734;8.950;2024-03-08T11:10:19;7.50;99.90
4727;DHT22;2377;51.734;8.950;2024-03-08T11:12:47;7.50;99.90
4727;DHT22;2377;51.734;8.950;2024-03-08T11:15:16;7.50;99.90
4727;DHT22;2377;51.734;8.950;2024-03-08T11:17:48;7.30;99.90
4727;DHT22;2377;51.734;8.950;2024-03-08T11:20:17;7.30;99.90
4727;DHT22;2377;51.734;8.950;2024-03-08T11:22:50;7.30;99.90
4727;DHT22;2377;51.734;8.950;2024-03-08T11:25:35;7.30;99.90
4727;DHT22;2377;51.734;8.950;2024-03-08T11:28:08;7.50;99.90
4727;DHT22;2377;51.734;8.950;2024-03-08T11:30:43;7.50;99.90
4727;DHT22;2377;51.734;8.950;2024-03-08T11:33:13;7.50;99.90
4727;DHT22;2377;51.734;8.950;2024-03-08T11:35:42;7.50;99.90
4727;DHT22;2377;51.734;8.950;2024-03-08T11:38:11;7.60;99.90
4727;DHT22;2377;51.734;8.950;2024-03-08T11:40:40;7.60;99.90
4727;DHT22;2377;51.734;8.950;2024-03-08T11:43:08;7.60;99.90
4727;DHT22;2377;51.734;8.950;2024-03-08T11:45:36;7.60;99.90
4727;DHT22;2377;51.734;8.950;2024-03-08T11:48:05;7.60;99.90
4727;DHT22;2377;51.734;8.950;2024-03-08T11:50:33;7.60;99.90
4727;DHT22;2377;51.734;8.950;2024-03-08T11:53:03;7.60;99.90
4727;DHT22;2377;51.734;8.950;2024-03-08T11:55:31;7.60;99.90
4727;DHT22;2377;51.734;8.950;2024-03-08T11:58:05;7.70;99.90
4727;DHT22;2377;51.734;8.950;2024-03-08T12:00:34;7.80;99.90
4727;DHT22;2377;51.734;8.950;2024-03-08T12:03:06;7.80;99.90
4727;DHT22;2377;51.734;8.950;2024-03-08T12:05:35;7.80;99.90
4727;DHT22;2377;51.734;8.950;2024-03-08T12:08:04;8.00;99.90
4727;DHT22;2377;51.734;8.950;2024-03-08T12:10:33;8.00;99.90
4727;DHT22;2377;51.734;8.950;2024-03-08T12:13:01;8.00;99.90
4727;DHT22;2377;51.734;8.950;2024-03-08T12:15:29;8.00;99.90
4727;DHT22;2377;51.734;8.950;2024-03-08T12:17:59;8.00;99.90
4727;DHT22;2377;51.734;8.950;2024-03-08T12:20:29;8.00;99.90
4727;DHT22;2377;51.734;8.950;2024-03-08T12:22:56;8.00;99.90
4727;DHT22;2377;51.734;8.950;2024-03-08T12:25:26;8.00;99.90
4727;DHT22;2377;51.734;8.950;2024-03-08T12:28:06;8.00;99.90
4727;DHT22;2377;51.734;8.950;2024-03-08T12:30:46;8.00;99.90
4727;DHT22;2377;51.734;8.950;2024-03-08T12:33:14;8.00;99.90
4727;DHT22;2377;51.734;8.950;2024-03-08T12:35:50;8.00;99.90
4727;DHT22;2377;51.734;8.950;2024-03-08T12:38:21;8.00;99.90
4727;DHT22;2377;51.734;8.950;2024-03-08T12:40:50;8.10;99.90
4727;DHT22;2377;51.734;8.950;2024-03-08T12:43:22;8.10;99.90
4727;DHT22;2377;51.734;8.950;2024-03-08T12:45:49;8.10;99.90
4727;DHT22;2377;51.734;8.950;2024-03-08T12:48:17;8.10;99.90
4727;DHT22;2377;51.734;8.950;2024-03-08T12:50:47;8.10;99.90
4727;DHT22;2377;51.734;8.950;2024-03-08T12:53:16;8.10;99.90
4727;DHT22;2377;51.734;8.950;2024-03-08T12:55:43;8.20;99.90
4727;DHT22;2377;51.734;8.950;2024-03-08T12:58:10;8.20;99.90
4727;DHT22;2377;51.734;8.950;2024-03-08T13:00:42;8.10;99.90
4727;DHT22;2377;51.734;8.950;2024-03-08T13:03:09;8.10;99.90
4727;DHT22;2377;51.734;8.950;2024-03-08T13:05:45;8.20;99.90
4727;DHT22;2377;51.734;8.950;2024-03-08T13:08:18;8.20;99.90
4727;DHT22;2377;51.734;8.950;2024-03-08T13:10:53;8.20;99.90
4727;DHT22;2377;51.734;8.950;2024-03-08T13:13:22;8.20;99.90
4727;DHT22;2377;51.734;8.950;2024-03-08T13:15:52;8.30;99.90
4727;DHT22;2377;51.734;8.950;2024-03-08T13:18:25;8.30;99.90
4727;DHT22;2377;51.734;8.950;2024-03-08T13:21:24;8.20;99.90
4727;DHT22;2377;51.734;8.950;2024-03-08T13:23:51;8.30;99.90
4727;DHT22;2377;51.734;8.950;2024-03-08T13:26:19;8.30;99.90
4727;DHT22;2377;51.734;8.950;2024-03-08T13:28:46;8.30;99.90
4727;DHT22;2377;51.734;8.950;2024-03-08T13:31:19;8.30;99.90
4727;DHT22;2377;51.734;8.950;2024-03-08T13:33:46;8.30;99.90
4727;DHT22;2377;51.734;8.950;2024-03-08T13:36:13;8.30;99.90
4727;DHT22;2377;51.734;8.950;2024-03-08T13:38:43;8.40;99.90
4727;DHT22;2377;51.734;8.950;2024-03-08T13:41:13;8.40;99.90
4727;DHT22;2377;51.734;8.950;2024-03-08T13:43:42;8.30;99.90
4727;DHT22;2377;51.734;8.950;2024-03-08T13:46:09;8.30;99.90
4727;DHT22;2377;51.734;8.950;2024-03-08T13:48:37;8.10;99.90
4727;DHT22;2377;51.734;8.950;2024-03-08T13:51:04;8.20;99.90
4727;DHT22;2377;51.734;8.950;2024-03-08T13:53:32;8.30;99.90
4727;DHT22;2377;51.734;8.950;2024-03-08T13:56:02;8.40;99.90
4727;DHT22;2377;51.734;8.950;2024-03-08T13:58:30;8.50;99.90
4727;DHT22;2377;51.734;8.950;2024-03-08T14:00:57;8.50;99.90
4727;DHT22;2377;51.734;8.950;2024-03-08T14:03:26;8.50;99.90
4727;DHT22;2377;51.734;8.950;2024-03-08T14:05:53;8.40;99.90
4727;DHT22;2377;51.734;8.950;2024-03-08T14:08:21;8.30;99.90
4727;DHT22;2377;51.734;8.950;2024-03-08T14:10:48;8.30;99.90
4727;DHT22;2377;51.734;8.950;2024-03-08T14:13:18;8.40;99.90
4727;DHT22;2377;51.734;8.950;2024-03-08T14:15:45;8.50;99.90
4727;DHT22;2377;51.734;8.950;2024-03-08T14:18:12;8.50;99.90
4727;DHT22;2377;51.734;8.950;2024-03-08T14:20:39;8.50;99.90
4727;DHT22;2377;51.734;8.950;2024-03-08T14:23:07;8.50;99.90
4727;DHT22;2377;51.734;8.950;2024-03-08T14:25:34;8.50;99.90
4727;DHT22;2377;51.734;8.950;2024-03-08T14:28:01;8.60;99.90
4727;DHT22;2377;51.734;8.950;2024-03-08T14:30:33;8.60;99.90
4727;DHT22;2377;51.734;8.950;2024-03-08T14:33:07;8.50;99.90
4727;DHT22;2377;51.734;8.950;2024-03-08T14:35:35;8.50;99.90
4727;DHT22;2377;51.734;8.950;2024-03-08T14:38:02;8.40;99.90
4727;DHT22;2377;51.734;8.950;2024-03-08T14:40:30;8.40;99.90
4727;DHT22;2377;51.734;8.950;2024-03-08T14:42:57;8.40;99.90
4727;DHT22;2377;51.734;8.950;2024-03-08T14:45:24;8.40;99.90
4727;DHT22;2377;51.734;8.950;2024-03-08T14:47:53;8.40;99.90
4727;DHT22;2377;51.734;8.950;2024-03-08T14:50:21;8.40;99.90
4727;DHT22;2377;51.734;8.950;2024-03-08T14:52:50;8.40;99.90
4727;DHT22;2377;51.734;8.950;2024-03-08T14:55:17;8.40;99.90
4727;DHT22;2377;51.734;8.950;2024-03-08T14:57:45;8.50;99.90
4727;DHT22;2377;51.734;8.950;2024-03-08T15:00:16;8.50;99.90
4727;DHT22;2377;51.734;8.950;2024-03-08T15:02:53;8.50;99.90
4727;DHT22;2377;51.734;8.950;2024-03-08T15:05:21;8.50;99.90
4727;DHT22;2377;51.734;8.950;2024-03-08T15:07:52;8.50;99.90
4727;DHT22;2377;51.734;8.950;2024-03-08T15:10:19;8.50;99.90
4727;DHT22;2377;51.734;8.950;2024-03-08T15:12:50;8.40;99.90
4727;DHT22;2377;51.734;8.950;2024-03-08T15:15:20;8.40;99.90
4727;DHT22;2377;51.734;8.950;2024-03-08T15:17:50;8.40;99.90
4727;DHT22;2377;51.734;8.950;2024-03-08T15:20:21;8.30;99.90
4727;DHT22;2377;51.734;8.950;2024-03-08T15:22:51;8.30;99.90
4727;DHT22;2377;51.734;8.950;2024-03-08T15:25:20;8.30;99.90
4727;DHT22;2377;51.734;8.950;2024-03-08T15:27:51;8.30;99.90
4727;DHT22;2377;51.734;8.950;2024-03-08T15:30:19;8.30;99.90
4727;DHT22;2377;51.734;8.950;2024-03-08T15:32:48;8.30;99.90
4727;DHT22;2377;51.734;8.950;2024-03-08T15:35:16;8.30;99.90
4727;DHT22;2377;51.734;8.950;2024-03-08T15:37:45;8.30;99.90
4727;DHT22;2377;51.734;8.950;2024-03-08T15:40:13;8.30;99.90
4727;DHT22;2377;51.734;8.950;2024-03-08T15:42:48;8.20;99.90
4727;DHT22;2377;51.734;8.950;2024-03-08T15:45:16;8.20;99.90
4727;DHT22;2377;51.734;8.950;2024-03-08T15:47:43;8.10;99.90
4727;DHT22;2377;51.734;8.950;2024-03-08T15:50:10;8.10;99.90
4727;DHT22;2377;51.734;8.950;2024-03-08T15:52:42;8.10;99.90
4727;DHT22;2377;51.734;8.950;2024-03-08T15:55:14;8.10;99.90
4727;DHT22;2377;51.734;8.950;2024-03-08T15:57:46;8.10;99.90
4727;DHT22;2377;51.734;8.950;2024-03-08T16:00:15;8.10;99.90
4727;DHT22;2377;51.734;8.950;2024-03-08T16:02:59;8.10;99.90
4727;DHT22;2377;51.734;8.950;2024-03-08T16:05:28;8.10;99.90
4727;DHT22;2377;51.734;8.950;2024-03-08T16:07:55;8.00;99.90
4727;DHT22;2377;51.734;8.950;2024-03-08T16:10:26;8.10;99.90
4727;DHT22;2377;51.734;8.950;2024-03-08T16:12:54;8.10;99.90
4727;DHT22;2377;51.734;8.950;2024-03-08T16:15:22;8.10;99.90
4727;DHT22;2377;51.734;8.950;2024-03-08T16:17:52;8.00;99.90
4727;DHT22;2377;51.734;8.950;2024-03-08T16:20:20;7.90;99.90
4727;DHT22;2377;51.734;8.950;2024-03-08T16:22:48;8.00;99.90
4727;DHT22;2377;51.734;8.950;2024-03-08T16:25:18;8.00;99.90
4727;DHT22;2377;51.734;8.950;2024-03-08T16:28:14;7.90;99.90
4727;DHT22;2377;51.734;8.950;2024-03-08T16:31:07;7.90;99.90
4727;DHT22;2377;51.734;8.950;2024-03-08T16:33:36;7.80;99.90
4727;DHT22;2377;51.734;8.950;2024-03-08T16:36:04;7.80;99.90